Time;durP1;ratioP1;P1;durP2;ratioP2;P2;SDS_P1;SDS_P2;PMS_P1;PMS_P2;Temp;Humidity;BMP_temperature;BMP_pressure;BME280_temperature;BME280_humidity;BME280_pressure;Samples;Min_cycle;Max_cycle;Signal;HPM_P1;HPM_P2
2023/08/27 00:00:23;;;;;;;;;;;16.20;73.40;;;;;;5051269;28;20202;-80
2023/08/27 00:02:48;;;;;;;;;;;16.30;73.30;;;;;;5034368;28;19917;-80
2023/08/27 00:05:14;;;;;;;;;;;16.20;73.20;;;;;;5069390;28;19912;-80
2023/08/27 00:07:40;;;;;;;;;;;16.20;73.30;;;;;;5070915;28;19912;-80
2023/08/27 00:10:06;;;;;;;;;;;16.20;73.30;;;;;;5038694;28;19920;-80
2023/08/27 00:12:31;;;;;;;;;;;16.10;73.30;;;;;;5055385;28;20037;-80
2023/08/27 00:14:57;;;;;;;;;;;16.20;73.40;;;;;;5071772;28;20011;-80
2023/08/27 00:17:22;;;;;;;;;;;16.10;73.30;;;;;;5036233;28;19913;-80
2023/08/27 00:19:48;;;;;;;;;;;16.20;73.30;;;;;;5052686;28;20057;-80
2023/08/27 00:22:13;;;;;;;;;;;16.20;73.30;;;;;;5054063;28;19916;-80
2023/08/27 00:24:39;;;;;;;;;;;16.20;73.40;;;;;;5070953;28;19908;-81
2023/08/27 00:27:05;;;;;;;;;;;16.10;73.20;;;;;;5052714;28;20335;-80
2023/08/27 00:29:31;;;;;;;;;;;16.10;73.20;;;;;;5055854;28;19912;-81
2023/08/27 00:31:57;;;;;;;;;;;16.10;73.30;;;;;;5035407;28;19913;-80
2023/08/27 00:34:30;;;;;;;;;;;16.10;73.30;;;;;;5068657;28;19913;-80
2023/08/27 00:36:56;;;;;;;;;;;16.10;73.30;;;;;;5051878;28;19915;-81
2023/08/27 00:39:21;;;;;;;;;;;16.10;73.40;;;;;;5051277;28;19959;-80
2023/08/27 00:41:47;;;;;;;;;;;16.10;73.40;;;;;;5052632;28;20077;-80
2023/08/27 00:44:12;;;;;;;;;;;16.10;73.30;;;;;;5051897;28;20312;-80
2023/08/27 00:46:38;;;;;;;;;;;16.10;73.30;;;;;;5059269;28;20062;-79
2023/08/27 00:49:04;;;;;;;;;;;16.00;73.20;;;;;;5069151;28;20269;-79
2023/08/27 00:51:30;;;;;;;;;;;16.10;73.30;;;;;;5068498;28;19913;-79
2023/08/27 00:53:56;;;;;;;;;;;16.00;73.20;;;;;;5052254;28;19935;-80
2023/08/27 00:56:22;;;;;;;;;;;16.00;73.20;;;;;;5072648;28;19908;-80
2023/08/27 00:58:47;;;;;;;;;;;15.90;73.20;;;;;;5054221;28;20347;-79
2023/08/27 01:01:14;;;;;;;;;;;15.80;73.20;;;;;;5051146;28;20434;-80
2023/08/27 01:03:39;;;;;;;;;;;15.80;73.30;;;;;;5051330;28;19912;-79
2023/08/27 01:06:05;;;;;;;;;;;15.80;73.20;;;;;;5050986;28;20023;-80
2023/08/27 01:08:38;;;;;;;;;;;15.80;73.20;;;;;;5051603;28;19916;-79
2023/08/27 01:11:22;;;;;;;;;;;15.70;73.10;;;;;;5050419;28;19947;-80
2023/08/27 01:13:52;;;;;;;;;;;15.60;73.20;;;;;;5068072;28;19909;-79
2023/08/27 01:16:19;;;;;;;;;;;15.50;73.30;;;;;;5067964;28;19912;-80
2023/08/27 01:18:45;;;;;;;;;;;15.50;73.40;;;;;;5068794;28;19919;-80
2023/08/27 01:21:21;;;;;;;;;;;15.50;73.40;;;;;;5035164;28;19912;-80
2023/08/27 01:23:47;;;;;;;;;;;15.40;73.30;;;;;;5072813;28;20348;-80
2023/08/27 01:26:28;;;;;;;;;;;15.30;73.20;;;;;;5056679;28;19928;-80
2023/08/27 01:29:06;;;;;;;;;;;15.20;73.20;;;;;;5073150;28;19908;-80
2023/08/27 01:31:34;;;;;;;;;;;15.20;73.30;;;;;;5054614;28;20368;-80
2023/08/27 01:34:02;;;;;;;;;;;15.20;73.40;;;;;;5053994;28;19927;-80
2023/08/27 01:36:28;;;;;;;;;;;15.20;73.50;;;;;;5071369;28;19974;-80
2023/08/27 01:38:56;;;;;;;;;;;15.20;73.50;;;;;;5052944;28;19912;-80
2023/08/27 01:41:21;;;;;;;;;;;15.30;73.40;;;;;;5052898;28;19917;-80
2023/08/27 01:43:47;;;;;;;;;;;15.30;73.40;;;;;;5070949;28;19920;-80
2023/08/27 01:46:13;;;;;;;;;;;15.30;73.40;;;;;;5053202;28;20392;-80
2023/08/27 01:48:38;;;;;;;;;;;15.40;73.30;;;;;;5071188;28;19912;-80
2023/08/27 01:51:04;;;;;;;;;;;15.40;73.30;;;;;;5055931;28;20011;-80
2023/08/27 01:53:29;;;;;;;;;;;15.50;73.30;;;;;;5053476;28;19916;-80
2023/08/27 01:55:55;;;;;;;;;;;15.50;73.30;;;;;;5053360;28;20330;-80
2023/08/27 01:58:21;;;;;;;;;;;15.60;73.30;;;;;;5071214;28;20510;-80
2023/08/27 02:00:48;;;;;;;;;;;15.60;73.20;;;;;;5071404;28;19925;-79
2023/08/27 02:03:14;;;;;;;;;;;15.60;73.20;;;;;;5053372;28;19929;-80
2023/08/27 02:05:39;;;;;;;;;;;15.70;73.30;;;;;;5071691;28;19913;-79
2023/08/27 02:08:05;;;;;;;;;;;15.80;73.30;;;;;;5053133;28;20381;-80
2023/08/27 02:10:30;;;;;;;;;;;15.80;73.20;;;;;;5053378;28;19935;-80
2023/08/27 02:12:56;;;;;;;;;;;15.80;73.10;;;;;;5052648;28;19982;-80
2023/08/27 02:15:22;;;;;;;;;;;15.80;73.10;;;;;;5070593;28;19919;-79
2023/08/27 02:17:47;;;;;;;;;;;15.70;73.10;;;;;;5053916;28;19913;-80
2023/08/27 02:20:13;;;;;;;;;;;15.70;73.10;;;;;;5036995;28;19951;-80
2023/08/27 02:22:39;;;;;;;;;;;15.70;73.20;;;;;;5072102;28;19912;-79
2023/08/27 02:25:05;;;;;;;;;;;15.70;73.10;;;;;;5070137;28;19928;-78
2023/08/27 02:27:31;;;;;;;;;;;15.70;73.20;;;;;;5069999;28;19909;-78
2023/08/27 02:29:56;;;;;;;;;;;15.60;73.20;;;;;;5052503;28;20296;-79
2023/08/27 02:32:24;;;;;;;;;;;15.60;73.20;;;;;;5052103;28;19913;-79
2023/08/27 02:34:49;;;;;;;;;;;15.60;73.20;;;;;;5069637;28;19908;-79
2023/08/27 02:37:15;;;;;;;;;;;15.60;73.20;;;;;;5035117;28;20346;-79
2023/08/27 02:39:40;;;;;;;;;;;15.60;73.30;;;;;;5051739;28;19916;-80
2023/08/27 02:42:06;;;;;;;;;;;15.60;73.30;;;;;;5051660;28;20118;-80
2023/08/27 02:44:32;;;;;;;;;;;15.60;73.30;;;;;;5051926;28;19920;-80
2023/08/27 02:46:57;;;;;;;;;;;15.60;73.30;;;;;;5070081;28;20291;-80
2023/08/27 02:49:23;;;;;;;;;;;15.60;73.20;;;;;;5052639;28;19919;-80
2023/08/27 02:51:48;;;;;;;;;;;15.60;73.20;;;;;;5035232;28;19919;-80
2023/08/27 02:54:14;;;;;;;;;;;15.60;73.20;;;;;;5069914;28;19922;-80
2023/08/27 02:56:40;;;;;;;;;;;15.60;73.20;;;;;;5071244;28;19916;-80
2023/08/27 02:59:05;;;;;;;;;;;15.60;73.30;;;;;;5051591;28;20272;-80
2023/08/27 03:01:31;;;;;;;;;;;15.60;73.30;;;;;;5051640;28;19931;-80
2023/08/27 03:03:57;;;;;;;;;;;15.60;73.30;;;;;;5036273;28;19923;-80
2023/08/27 03:06:23;;;;;;;;;;;15.70;73.40;;;;;;5053770;28;19913;-80
2023/08/27 03:08:48;;;;;;;;;;;15.60;73.40;;;;;;5073819;28;19915;-80
2023/08/27 03:11:14;;;;;;;;;;;15.70;73.40;;;;;;5052380;28;20448;-80
2023/08/27 03:13:39;;;;;;;;;;;15.70;73.40;;;;;;5051692;28;19917;-80
2023/08/27 03:16:05;;;;;;;;;;;15.70;73.30;;;;;;5052397;28;19908;-80
2023/08/27 03:18:30;;;;;;;;;;;15.70;73.30;;;;;;5034737;28;20361;-80
2023/08/27 03:20:56;;;;;;;;;;;15.70;73.30;;;;;;5051880;28;19999;-80
2023/08/27 03:23:21;;;;;;;;;;;15.70;73.30;;;;;;5051025;28;19981;-80
2023/08/27 03:25:51;;;;;;;;;;;15.60;73.20;;;;;;5034705;28;19979;-80
2023/08/27 03:28:16;;;;;;;;;;;15.60;73.30;;;;;;5051270;28;19915;-80
2023/08/27 03:30:42;;;;;;;;;;;15.60;73.30;;;;;;5070348;28;20365;-80
2023/08/27 03:33:07;;;;;;;;;;;15.60;73.30;;;;;;5070192;28;20015;-80
2023/08/27 03:35:33;;;;;;;;;;;15.60;73.30;;;;;;5069199;28;19912;-80
2023/08/27 03:37:58;;;;;;;;;;;15.70;73.40;;;;;;5051396;28;19962;-80
2023/08/27 03:40:24;;;;;;;;;;;15.70;73.40;;;;;;5051556;28;19912;-80
2023/08/27 03:42:50;;;;;;;;;;;15.60;73.30;;;;;;5050498;28;20015;-80
2023/08/27 03:45:15;;;;;;;;;;;15.60;73.30;;;;;;5034777;28;19913;-80
2023/08/27 03:47:41;;;;;;;;;;;15.60;73.30;;;;;;5068824;28;19923;-80
2023/08/27 03:50:07;;;;;;;;;;;15.60;73.30;;;;;;5034366;28;20276;-80
2023/08/27 03:52:34;;;;;;;;;;;15.60;73.30;;;;;;5050621;28;20007;-81
2023/08/27 03:55:01;;;;;;;;;;;15.50;73.30;;;;;;5068888;28;19919;-80
2023/08/27 03:57:26;;;;;;;;;;;15.50;73.30;;;;;;5051767;28;19908;-80
2023/08/27 03:59:52;;;;;;;;;;;15.50;73.30;;;;;;5068656;28;19990;-80
2023/08/27 04:02:17;;;;;;;;;;;15.50;73.30;;;;;;5050232;28;19959;-79
2023/08/27 04:04:45;;;;;;;;;;;15.60;73.30;;;;;;5067907;28;20218;-80
2023/08/27 04:07:11;;;;;;;;;;;15.50;73.30;;;;;;5068108;28;19908;-80
2023/08/27 04:09:37;;;;;;;;;;;15.50;73.30;;;;;;5050540;28;19966;-80
2023/08/27 04:12:03;;;;;;;;;;;15.50;73.30;;;;;;5068396;28;19916;-80
2023/08/27 04:14:29;;;;;;;;;;;15.50;73.30;;;;;;5050155;28;20023;-80
2023/08/27 04:16:54;;;;;;;;;;;15.40;73.30;;;;;;5050021;28;20375;-80
2023/08/27 04:19:20;;;;;;;;;;;15.40;73.30;;;;;;5068303;28;20358;-80
2023/08/27 04:21:45;;;;;;;;;;;15.40;73.30;;;;;;5068681;28;19991;-80
2023/08/27 04:24:11;;;;;;;;;;;15.40;73.40;;;;;;5051575;28;19966;-80
2023/08/27 04:26:37;;;;;;;;;;;15.40;73.30;;;;;;5052613;28;20019;-80
2023/08/27 04:29:02;;;;;;;;;;;15.50;73.40;;;;;;5068864;28;19916;-80
2023/08/27 04:31:28;;;;;;;;;;;15.40;73.30;;;;;;5050848;28;20409;-80
2023/08/27 04:33:54;;;;;;;;;;;15.40;73.30;;;;;;5033843;28;19943;-80
2023/08/27 04:36:20;;;;;;;;;;;15.40;73.30;;;;;;5033698;28;20281;-80
2023/08/27 04:38:45;;;;;;;;;;;15.40;73.30;;;;;;5068397;28;19913;-80
2023/08/27 04:41:11;;;;;;;;;;;15.40;73.30;;;;;;5051260;28;20317;-80
2023/08/27 04:43:36;;;;;;;;;;;15.40;73.30;;;;;;5069264;28;19913;-80
2023/08/27 04:46:02;;;;;;;;;;;15.40;73.30;;;;;;5034774;28;19912;-80
2023/08/27 04:48:27;;;;;;;;;;;15.40;73.30;;;;;;5051852;28;20049;-80
2023/08/27 04:50:53;;;;;;;;;;;15.40;73.30;;;;;;5050347;28;19916;-80
2023/08/27 04:53:19;;;;;;;;;;;15.40;73.30;;;;;;5068343;28;20207;-80
2023/08/27 04:55:45;;;;;;;;;;;15.40;73.30;;;;;;5054269;28;20007;-80
2023/08/27 04:58:11;;;;;;;;;;;15.40;73.30;;;;;;5054472;28;19946;-80
2023/08/27 05:00:36;;;;;;;;;;;15.40;73.30;;;;;;5055036;28;19974;-80
2023/08/27 05:03:02;;;;;;;;;;;15.40;73.30;;;;;;5073255;28;19980;-80
2023/08/27 05:05:28;;;;;;;;;;;15.40;73.40;;;;;;5041096;28;19923;-80
2023/08/27 05:07:54;;;;;;;;;;;15.40;73.40;;;;;;5045653;28;19952;-80
2023/08/27 05:10:20;;;;;;;;;;;15.40;73.40;;;;;;5060401;28;19917;-81
2023/08/27 05:12:45;;;;;;;;;;;15.40;73.40;;;;;;5059568;28;19955;-80
2023/08/27 05:15:11;;;;;;;;;;;15.40;73.40;;;;;;5055806;28;19912;-80
2023/08/27 05:17:36;;;;;;;;;;;15.40;73.40;;;;;;5072514;28;20301;-80
2023/08/27 05:20:04;;;;;;;;;;;15.40;73.40;;;;;;5039169;28;19935;-80
2023/08/27 05:22:30;;;;;;;;;;;15.40;73.30;;;;;;5056354;28;19953;-80
2023/08/27 05:24:55;;;;;;;;;;;15.40;73.60;;;;;;5056187;28;20387;-80
2023/08/27 05:27:21;;;;;;;;;;;15.40;73.30;;;;;;5072609;28;19935;-80
2023/08/27 05:29:46;;;;;;;;;;;15.40;73.40;;;;;;5072278;28;20088;-80
2023/08/27 05:32:12;;;;;;;;;;;15.40;73.30;;;;;;5054148;28;19913;-80
2023/08/27 05:34:38;;;;;;;;;;;15.40;73.30;;;;;;5053494;28;19913;-80
2023/08/27 05:37:03;;;;;;;;;;;15.40;73.30;;;;;;5052706;28;20353;-80
2023/08/27 05:39:29;;;;;;;;;;;15.30;73.30;;;;;;5052989;28;19973;-80
2023/08/27 05:41:55;;;;;;;;;;;15.30;73.30;;;;;;5052789;28;20300;-80
2023/08/27 05:44:20;;;;;;;;;;;15.30;73.30;;;;;;5052952;28;19934;-80
2023/08/27 05:46:46;;;;;;;;;;;15.30;73.30;;;;;;5036158;28;19912;-80
2023/08/27 05:49:12;;;;;;;;;;;15.30;73.40;;;;;;5052647;28;20269;-80
2023/08/27 05:51:37;;;;;;;;;;;15.30;73.40;;;;;;5053884;28;20243;-80
2023/08/27 05:54:03;;;;;;;;;;;15.30;73.40;;;;;;5054190;28;19919;-80
2023/08/27 05:56:29;;;;;;;;;;;15.30;73.40;;;;;;5053053;28;20415;-79
2023/08/27 05:58:54;;;;;;;;;;;15.30;73.40;;;;;;5070953;28;19912;-80
2023/08/27 06:01:20;;;;;;;;;;;15.30;73.40;;;;;;5052343;28;19950;-80
2023/08/27 06:03:46;;;;;;;;;;;15.30;73.40;;;;;;5052793;28;20363;-80
2023/08/27 06:06:11;;;;;;;;;;;15.30;73.40;;;;;;5052873;28;19912;-80
2023/08/27 06:08:37;;;;;;;;;;;15.40;73.50;;;;;;5039277;28;20323;-80
2023/08/27 06:11:04;;;;;;;;;;;15.40;73.40;;;;;;5054174;28;19995;-80
2023/08/27 06:13:30;;;;;;;;;;;15.40;73.40;;;;;;5053123;28;19920;-80
2023/08/27 06:15:56;;;;;;;;;;;15.40;73.40;;;;;;5070282;28;19978;-80
2023/08/27 06:18:22;;;;;;;;;;;15.40;73.40;;;;;;5052695;28;19923;-81
2023/08/27 06:20:48;;;;;;;;;;;15.40;73.50;;;;;;5035724;28;20367;-80
2023/08/27 06:23:14;;;;;;;;;;;15.40;73.40;;;;;;5035913;28;20011;-80
2023/08/27 06:25:39;;;;;;;;;;;15.40;73.50;;;;;;5035899;28;20303;-80
2023/08/27 06:28:05;;;;;;;;;;;15.50;73.50;;;;;;5070119;28;19913;-80
2023/08/27 06:30:31;;;;;;;;;;;15.50;73.50;;;;;;5052087;28;20018;-80
2023/08/27 06:32:57;;;;;;;;;;;15.50;73.40;;;;;;5051713;28;19915;-80
2023/08/27 06:35:23;;;;;;;;;;;15.40;73.40;;;;;;5051852;28;19999;-80
2023/08/27 06:37:48;;;;;;;;;;;15.40;73.40;;;;;;5052024;28;19913;-80
2023/08/27 06:40:14;;;;;;;;;;;15.40;73.40;;;;;;5036753;28;19913;-80
2023/08/27 06:42:40;;;;;;;;;;;15.50;73.50;;;;;;5053257;28;19963;-80
2023/08/27 06:45:06;;;;;;;;;;;15.50;73.50;;;;;;5070383;28;19948;-80
2023/08/27 06:47:32;;;;;;;;;;;15.50;73.50;;;;;;5070772;28;19915;-78
2023/08/27 06:49:58;;;;;;;;;;;15.50;73.50;;;;;;5070955;28;19917;-79
2023/08/27 06:52:23;;;;;;;;;;;15.60;73.50;;;;;;5052092;28;20387;-79
2023/08/27 06:54:49;;;;;;;;;;;15.50;73.40;;;;;;5051605;28;19912;-78
2023/08/27 06:57:15;;;;;;;;;;;15.60;73.60;;;;;;5051310;28;19916;-78
2023/08/27 06:59:40;;;;;;;;;;;15.60;73.50;;;;;;5070109;28;20003;-78
2023/08/27 07:02:06;;;;;;;;;;;15.60;73.60;;;;;;5051628;28;19924;-78
2023/08/27 07:04:32;;;;;;;;;;;15.60;73.60;;;;;;5051435;28;19919;-78
2023/08/27 07:06:58;;;;;;;;;;;15.70;73.60;;;;;;5054562;28;19915;-78
2023/08/27 07:09:23;;;;;;;;;;;15.70;73.50;;;;;;5055496;28;20004;-78
2023/08/27 07:11:49;;;;;;;;;;;15.70;73.50;;;;;;5053051;28;20361;-79
2023/08/27 07:14:15;;;;;;;;;;;15.70;73.40;;;;;;5068949;28;19909;-78
2023/08/27 07:16:40;;;;;;;;;;;15.70;73.40;;;;;;5069262;28;20300;-79
2023/08/27 07:19:06;;;;;;;;;;;15.70;73.50;;;;;;5069026;28;19913;-79
2023/08/27 07:21:32;;;;;;;;;;;15.70;73.60;;;;;;5035114;28;19916;-78
2023/08/27 07:23:57;;;;;;;;;;;15.80;73.60;;;;;;5051928;28;19924;-78
2023/08/27 07:26:23;;;;;;;;;;;15.80;73.50;;;;;;5053855;28;19920;-78
2023/08/27 07:28:49;;;;;;;;;;;15.80;73.50;;;;;;5053598;28;20015;-79
2023/08/27 07:31:14;;;;;;;;;;;15.90;73.50;;;;;;5038659;28;20005;-79
2023/08/27 07:33:40;;;;;;;;;;;15.90;73.50;;;;;;5056639;28;19909;-80
2023/08/27 07:36:05;;;;;;;;;;;16.00;73.60;;;;;;5055817;28;19919;-79
2023/08/27 07:38:31;;;;;;;;;;;16.00;73.50;;;;;;5072796;28;19909;-78
2023/08/27 07:40:57;;;;;;;;;;;16.00;73.50;;;;;;5059000;28;19913;-78
2023/08/27 07:43:22;;;;;;;;;;;16.00;73.50;;;;;;5041595;28;19916;-78
2023/08/27 07:45:48;;;;;;;;;;;16.00;73.50;;;;;;5074545;28;19913;-79
2023/08/27 07:48:14;;;;;;;;;;;16.10;73.60;;;;;;5058273;28;20296;-79
2023/08/27 07:50:39;;;;;;;;;;;16.20;73.60;;;;;;5075469;28;19940;-79
2023/08/27 07:53:05;;;;;;;;;;;16.30;73.70;;;;;;5074276;28;20322;-79
2023/08/27 07:55:34;;;;;;;;;;;16.50;73.70;;;;;;5055299;28;20158;-79
2023/08/27 07:58:00;;;;;;;;;;;16.60;73.50;;;;;;5055443;28;19931;-79
2023/08/27 08:00:25;;;;;;;;;;;16.60;73.30;;;;;;5072228;28;19920;-79
2023/08/27 08:02:51;;;;;;;;;;;16.60;73.20;;;;;;5071576;28;20016;-79
2023/08/27 08:05:17;;;;;;;;;;;16.60;73.30;;;;;;5054566;28;20364;-79
2023/08/27 08:07:42;;;;;;;;;;;16.50;73.30;;;;;;5053652;28;19952;-80
2023/08/27 08:10:08;;;;;;;;;;;16.50;73.40;;;;;;5070366;28;20210;-79
2023/08/27 08:12:34;;;;;;;;;;;16.50;73.50;;;;;;5071744;28;19908;-79
2023/08/27 08:14:59;;;;;;;;;;;16.60;73.40;;;;;;5053775;28;20003;-79
2023/08/27 08:17:25;;;;;;;;;;;16.60;73.40;;;;;;5036092;28;20431;-79
2023/08/27 08:19:51;;;;;;;;;;;16.60;73.40;;;;;;5052260;28;19908;-80
2023/08/27 08:22:17;;;;;;;;;;;16.50;73.30;;;;;;5052104;28;20292;-79
2023/08/27 08:24:43;;;;;;;;;;;16.50;73.30;;;;;;5053689;28;19917;-80
2023/08/27 08:27:08;;;;;;;;;;;16.40;73.50;;;;;;5039525;28;19912;-80
2023/08/27 08:29:34;;;;;;;;;;;16.50;73.70;;;;;;5053623;28;19919;-79
2023/08/27 08:32:00;;;;;;;;;;;16.50;73.70;;;;;;5041360;28;19917;-80
2023/08/27 08:34:28;;;;;;;;;;;16.60;73.60;;;;;;5073722;28;19915;-80
2023/08/27 08:36:54;;;;;;;;;;;16.70;73.50;;;;;;5074814;28;19913;-80
2023/08/27 08:39:20;;;;;;;;;;;16.70;73.50;;;;;;5074240;28;19923;-77
2023/08/27 08:41:50;;;;;;;;;;;16.80;73.70;;;;;;5075662;28;19921;-80
2023/08/27 08:44:16;;;;;;;;;;;16.90;73.70;;;;;;5059080;28;20386;-80
2023/08/27 08:46:43;;;;;;;;;;;17.00;73.50;;;;;;5072706;28;19912;-80
2023/08/27 08:49:12;;;;;;;;;;;17.00;73.50;;;;;;5055250;28;19909;-80
2023/08/27 08:51:38;;;;;;;;;;;17.00;73.40;;;;;;5073317;28;19936;-80
2023/08/27 08:54:04;;;;;;;;;;;16.90;73.40;;;;;;5073245;28;19935;-80
2023/08/27 08:56:39;;;;;;;;;;;16.90;73.50;;;;;;5073560;28;19917;-79
2023/08/27 08:59:05;;;;;;;;;;;16.80;73.60;;;;;;5073443;28;20343;-80
2023/08/27 09:01:31;;;;;;;;;;;16.80;73.60;;;;;;5057090;28;19963;-81
2023/08/27 09:03:59;;;;;;;;;;;16.80;73.70;;;;;;5054989;28;19909;-80
2023/08/27 09:06:26;;;;;;;;;;;16.80;73.60;;;;;;5075775;28;19908;-80
2023/08/27 09:08:52;;;;;;;;;;;16.80;73.70;;;;;;5058116;28;19966;-81
2023/08/27 09:11:21;;;;;;;;;;;16.80;73.70;;;;;;5075289;28;20054;-80
2023/08/27 09:13:47;;;;;;;;;;;16.90;73.80;;;;;;5059636;28;19908;-80
2023/08/27 09:16:13;;;;;;;;;;;16.90;73.80;;;;;;5042927;28;19987;-74
2023/08/27 09:18:38;;;;;;;;;;;17.00;73.80;;;;;;5061187;28;19952;-80
2023/08/27 09:21:06;;;;;;;;;;;17.10;73.80;;;;;;5076338;28;19944;-80
2023/08/27 09:23:37;;;;;;;;;;;17.10;73.80;;;;;;5041512;28;19925;-80
2023/08/27 09:26:03;;;;;;;;;;;17.20;73.70;;;;;;5061215;28;19982;-80
2023/08/27 09:28:29;;;;;;;;;;;17.20;73.60;;;;;;5058717;28;19917;-80
2023/08/27 09:30:55;;;;;;;;;;;17.30;73.60;;;;;;5076974;28;19961;-79
2023/08/27 09:33:34;;;;;;;;;;;17.40;73.60;;;;;;5056337;28;19919;-80
2023/08/27 09:35:59;;;;;;;;;;;17.30;73.40;;;;;;5075109;28;20254;-80
2023/08/27 09:38:27;;;;;;;;;;;17.30;73.50;;;;;;5059304;28;20025;-80
2023/08/27 09:40:53;;;;;;;;;;;17.30;73.50;;;;;;5059306;28;19940;-80
2023/08/27 09:43:25;;;;;;;;;;;17.30;73.70;;;;;;5058057;28;20272;-80
2023/08/27 09:45:51;;;;;;;;;;;17.30;73.70;;;;;;5071418;28;19915;-79
2023/08/27 09:48:27;;;;;;;;;;;17.40;73.70;;;;;;5075266;28;19913;-79
2023/08/27 09:51:04;;;;;;;;;;;17.40;73.80;;;;;;5056464;28;19915;-80
2023/08/27 09:53:29;;;;;;;;;;;17.50;74.40;;;;;;5055631;28;19991;-79
2023/08/27 09:55:55;;;;;;;;;;;17.70;74.30;;;;;;5055958;28;20356;-80
2023/08/27 09:58:24;;;;;;;;;;;17.80;73.90;;;;;;5071934;28;19922;-80
2023/08/27 10:00:56;;;;;;;;;;;17.90;73.80;;;;;;5072885;28;19928;-79
2023/08/27 10:03:22;;;;;;;;;;;18.10;73.80;;;;;;5052162;28;19917;-77
2023/08/27 10:05:49;;;;;;;;;;;18.10;73.70;;;;;;5070579;28;20279;-80
2023/08/27 10:08:14;;;;;;;;;;;18.10;73.50;;;;;;5055310;28;19908;-81
2023/08/27 10:10:40;;;;;;;;;;;18.10;73.60;;;;;;5054881;28;20003;-80
2023/08/27 10:13:06;;;;;;;;;;;18.10;73.80;;;;;;5052936;28;20383;-80
2023/08/27 10:15:35;;;;;;;;;;;18.20;73.80;;;;;;5070370;28;20276;-80
2023/08/27 10:18:02;;;;;;;;;;;18.30;73.70;;;;;;5037147;28;20026;-80
2023/08/27 10:20:28;;;;;;;;;;;18.40;73.60;;;;;;5072235;28;20288;-80
2023/08/27 10:22:55;;;;;;;;;;;18.40;73.50;;;;;;5052546;28;20022;-81
2023/08/27 10:25:21;;;;;;;;;;;18.40;73.50;;;;;;5070338;28;20387;-80
2023/08/27 10:27:48;;;;;;;;;;;18.40;73.50;;;;;;5035939;28;19923;-81
2023/08/27 10:30:15;;;;;;;;;;;18.40;73.60;;;;;;5052039;28;19938;-80
2023/08/27 10:32:40;;;;;;;;;;;18.40;73.60;;;;;;5069993;28;19952;-81
2023/08/27 10:35:06;;;;;;;;;;;18.30;73.50;;;;;;5036340;28;19947;-80
2023/08/27 10:37:33;;;;;;;;;;;18.40;73.70;;;;;;5072367;28;19908;-77
2023/08/27 10:40:00;;;;;;;;;;;18.40;73.70;;;;;;5052714;28;19943;-80
2023/08/27 10:42:32;;;;;;;;;;;18.50;73.80;;;;;;5052068;28;19912;-80
2023/08/27 10:45:14;;;;;;;;;;;18.70;73.90;;;;;;5070075;28;19917;-80
2023/08/27 10:47:39;;;;;;;;;;;18.80;73.70;;;;;;5052564;28;20154;-80
2023/08/27 10:50:06;;;;;;;;;;;18.80;73.40;;;;;;5070140;28;19955;-81
2023/08/27 10:52:47;;;;;;;;;;;18.80;73.30;;;;;;5071862;28;19915;-80
2023/08/27 10:55:13;;;;;;;;;;;18.80;73.30;;;;;;5073629;28;20352;-80
2023/08/27 10:57:38;;;;;;;;;;;18.70;73.20;;;;;;5074199;28;19912;-80
2023/08/27 11:00:10;;;;;;;;;;;18.50;73.20;;;;;;5054804;28;20320;-80
2023/08/27 11:02:54;;;;;;;;;;;18.50;73.40;;;;;;5052374;28;19924;-81
2023/08/27 11:05:27;;;;;;;;;;;18.60;73.50;;;;;;5070659;28;19924;-80
2023/08/27 11:07:52;;;;;;;;;;;18.70;73.60;;;;;;5070550;28;19999;-82
2023/08/27 11:10:18;;;;;;;;;;;18.90;73.70;;;;;;5053679;28;20015;-81
2023/08/27 11:12:43;;;;;;;;;;;19.10;73.60;;;;;;5070819;28;19912;-81
2023/08/27 11:15:10;;;;;;;;;;;19.20;73.70;;;;;;5052339;28;19948;-81
2023/08/27 11:17:36;;;;;;;;;;;19.40;73.70;;;;;;5052498;28;19908;-83
2023/08/27 11:20:17;;;;;;;;;;;19.60;73.50;;;;;;5053093;28;19913;-81
2023/08/27 11:22:53;;;;;;;;;;;19.60;73.30;;;;;;5070243;28;20016;-82
2023/08/27 11:25:19;;;;;;;;;;;19.60;73.20;;;;;;5071783;28;20369;-81
2023/08/27 11:27:45;;;;;;;;;;;19.50;73.10;;;;;;5052438;28;19958;-82
2023/08/27 11:30:11;;;;;;;;;;;19.30;73.10;;;;;;5034740;28;20003;-82
2023/08/27 11:32:37;;;;;;;;;;;19.10;73.20;;;;;;5068320;28;19970;-82
2023/08/27 11:35:06;;;;;;;;;;;19.00;73.40;;;;;;5034952;28;19921;-83
2023/08/27 11:37:32;;;;;;;;;;;19.10;74.40;;;;;;5035082;28;19913;-82
2023/08/27 11:39:57;;;;;;;;;;;19.40;74.10;;;;;;5051517;28;19919;-82
2023/08/27 11:42:23;;;;;;;;;;;19.70;74.10;;;;;;5068966;28;20292;-79
2023/08/27 11:44:49;;;;;;;;;;;20.00;73.70;;;;;;5069304;28;19923;-81
2023/08/27 11:47:15;;;;;;;;;;;20.10;73.60;;;;;;5069863;28;19916;-81
2023/08/27 11:49:41;;;;;;;;;;;20.30;73.50;;;;;;5034573;28;20284;-80
2023/08/27 11:52:06;;;;;;;;;;;20.30;73.40;;;;;;5034713;28;19920;-81
2023/08/27 11:54:33;;;;;;;;;;;20.40;73.50;;;;;;5050240;28;19912;-80
2023/08/27 11:56:58;;;;;;;;;;;20.50;73.40;;;;;;5072503;28;20019;-81
2023/08/27 11:59:25;;;;;;;;;;;20.40;73.30;;;;;;5051143;28;19944;-81
2023/08/27 12:01:50;;;;;;;;;;;20.40;73.30;;;;;;5050069;28;19985;-81
2023/08/27 12:04:16;;;;;;;;;;;20.20;73.20;;;;;;5032794;28;19916;-78
2023/08/27 12:06:51;;;;;;;;;;;20.00;73.20;;;;;;5050019;28;19983;-81
2023/08/27 12:09:24;;;;;;;;;;;20.00;73.50;;;;;;5050112;28;19916;-82
2023/08/27 12:11:49;;;;;;;;;;;19.90;73.50;;;;;;5068094;28;19916;-81
2023/08/27 12:14:20;;;;;;;;;;;20.00;73.50;;;;;;5049691;28;19967;-81
2023/08/27 12:16:46;;;;;;;;;;;19.90;74.10;;;;;;5050304;28;20288;-80
2023/08/27 12:19:11;;;;;;;;;;;19.90;73.60;;;;;;5049935;28;19919;-81
2023/08/27 12:21:50;;;;;;;;;;;19.80;73.50;;;;;;5033421;28;20394;-80
2023/08/27 12:24:26;;;;;;;;;;;19.60;73.50;;;;;;5050215;28;20272;-82
2023/08/27 12:26:51;;;;;;;;;;;19.50;73.60;;;;;;5049932;28;19909;-81
2023/08/27 12:29:17;;;;;;;;;;;19.50;73.80;;;;;;5050242;28;20453;-82
2023/08/27 12:31:44;;;;;;;;;;;19.50;73.80;;;;;;5050273;28;19919;-82
2023/08/27 12:34:10;;;;;;;;;;;19.60;73.90;;;;;;5068682;28;20372;-81
2023/08/27 12:36:36;;;;;;;;;;;19.70;73.80;;;;;;5033159;28;19913;-81
2023/08/27 12:39:02;;;;;;;;;;;19.70;73.80;;;;;;5032808;28;20066;-83
2023/08/27 12:41:28;;;;;;;;;;;19.80;73.70;;;;;;5067480;28;19939;-82
2023/08/27 12:43:55;;;;;;;;;;;19.70;73.50;;;;;;5067671;28;19952;-81
2023/08/27 12:46:23;;;;;;;;;;;19.70;73.70;;;;;;5067479;28;20279;-81
2023/08/27 12:48:49;;;;;;;;;;;19.70;73.80;;;;;;5067552;28;20016;-81
2023/08/27 12:51:15;;;;;;;;;;;19.80;73.80;;;;;;5032699;28;19913;-82
2023/08/27 12:53:41;;;;;;;;;;;19.90;73.90;;;;;;5049448;28;19913;-81
2023/08/27 12:56:07;;;;;;;;;;;19.90;73.80;;;;;;5049403;28;19912;-81
2023/08/27 12:58:32;;;;;;;;;;;20.20;74.20;;;;;;5049489;28;19912;-81
2023/08/27 13:01:00;;;;;;;;;;;20.60;74.50;;;;;;5048744;28;19924;-80
2023/08/27 13:03:26;;;;;;;;;;;20.90;74.20;;;;;;5048685;28;20449;-81
2023/08/27 13:05:54;;;;;;;;;;;21.30;74.30;;;;;;5049030;28;19919;-81
2023/08/27 13:08:20;;;;;;;;;;;21.70;74.30;;;;;;5067167;28;19912;-82
2023/08/27 13:10:46;;;;;;;;;;;22.00;74.00;;;;;;5067602;28;20279;-81
2023/08/27 13:13:11;;;;;;;;;;;22.00;73.70;;;;;;5049316;28;19920;-81
2023/08/27 13:15:37;;;;;;;;;;;22.10;73.60;;;;;;5050074;28;19916;-81
2023/08/27 13:18:02;;;;;;;;;;;22.10;73.50;;;;;;5036320;28;19920;-80
2023/08/27 13:20:28;;;;;;;;;;;22.00;73.40;;;;;;5052730;28;19912;-80
2023/08/27 13:22:53;;;;;;;;;;;21.90;73.60;;;;;;5035640;28;19920;-80
2023/08/27 13:25:19;;;;;;;;;;;21.80;73.80;;;;;;5053907;28;19926;-80
2023/08/27 13:27:45;;;;;;;;;;;21.90;73.80;;;;;;5053447;28;19912;-80
2023/08/27 13:30:10;;;;;;;;;;;21.90;73.90;;;;;;5070492;28;19948;-80
2023/08/27 13:32:36;;;;;;;;;;;21.90;74.00;;;;;;5052452;28;19912;-80
2023/08/27 13:35:05;;;;;;;;;;;21.90;74.00;;;;;;5052586;28;19959;-80
2023/08/27 13:37:30;;;;;;;;;;;22.00;74.30;;;;;;5052583;28;19950;-80
2023/08/27 13:39:56;;;;;;;;;;;22.20;74.60;;;;;;5052204;28;19908;-80
2023/08/27 13:42:21;;;;;;;;;;;22.40;74.50;;;;;;5035734;28;19921;-80
2023/08/27 13:44:47;;;;;;;;;;;22.50;74.30;;;;;;5070266;28;20318;-80
2023/08/27 13:47:13;;;;;;;;;;;22.60;74.20;;;;;;5070505;28;19919;-80
2023/08/27 13:49:38;;;;;;;;;;;22.60;74.20;;;;;;5052245;28;19909;-80
2023/08/27 13:52:04;;;;;;;;;;;22.70;74.40;;;;;;5051854;28;19913;-80
2023/08/27 13:54:30;;;;;;;;;;;22.70;74.40;;;;;;5034876;28;19943;-79
2023/08/27 13:56:55;;;;;;;;;;;22.80;74.50;;;;;;5069876;28;19920;-79
2023/08/27 13:59:21;;;;;;;;;;;22.80;74.30;;;;;;5035541;28;20376;-80
2023/08/27 14:01:48;;;;;;;;;;;22.80;74.20;;;;;;5072220;28;19920;-79
2023/08/27 14:04:13;;;;;;;;;;;22.90;74.40;;;;;;5036018;28;20277;-80
2023/08/27 14:06:39;;;;;;;;;;;23.00;74.60;;;;;;5051619;28;19924;-80
2023/08/27 14:09:05;;;;;;;;;;;23.30;74.60;;;;;;5069765;28;19913;-78
2023/08/27 14:11:31;;;;;;;;;;;23.40;74.50;;;;;;5051625;28;19944;-78